Time;durP1;ratioP1;P1;durP2;ratioP2;P2;SDS_P1;SDS_P2;PMS_P1;PMS_P2;Temp;Humidity;BMP_temperature;BMP_pressure;BME280_temperature;BME280_humidity;BME280_pressure;Samples;Min_cycle;Max_cycle;Signal;HPM_P1;HPM_P2
2023/12/08 00:01:15;;;;;;;17.07;13.23;;;2.90;99.90;;;;;;5034825;28;20218;-69
2023/12/08 00:03:41;;;;;;;17.43;13.30;;;2.90;99.90;;;;;;5034698;28;20629;-68
2023/12/08 00:06:07;;;;;;;15.23;11.83;;;3.00;99.90;;;;;;5034746;28;20180;-69
2023/12/08 00:08:34;;;;;;;16.00;12.60;;;3.00;99.90;;;;;;5035065;28;20253;-69
2023/12/08 00:10:59;;;;;;;17.70;12.60;;;3.00;99.90;;;;;;5034922;28;20176;-69
2023/12/08 00:13:25;;;;;;;17.17;12.50;;;3.00;99.90;;;;;;5034253;28;20547;-68
2023/12/08 00:15:51;;;;;;;15.93;12.93;;;3.00;99.90;;;;;;5034945;28;20168;-68
2023/12/08 00:18:17;;;;;;;16.73;12.80;;;3.00;99.90;;;;;;5035377;28;20198;-68
2023/12/08 00:20:42;;;;;;;16.30;11.67;;;3.00;99.90;;;;;;5035564;28;20191;-69
2023/12/08 00:23:08;;;;;;;16.53;13.03;;;3.10;99.90;;;;;;5035472;28;20210;-68
2023/12/08 00:25:34;;;;;;;12.43;11.13;;;3.10;99.90;;;;;;5035126;28;20175;-68
2023/12/08 00:27:59;;;;;;;15.77;12.53;;;3.10;99.90;;;;;;5034972;28;20211;-69
2023/12/08 00:30:25;;;;;;;17.73;12.17;;;3.20;99.90;;;;;;5035379;28;20524;-69
2023/12/08 00:32:51;;;;;;;12.77;11.03;;;3.20;99.90;;;;;;5034477;28;20266;-69
2023/12/08 00:35:18;;;;;;;14.80;11.90;;;3.20;99.90;;;;;;5033020;28;20179;-68
2023/12/08 00:37:44;;;;;;;14.60;11.97;;;3.20;99.90;;;;;;5034179;28;20199;-69
2023/12/08 00:40:11;;;;;;;14.17;11.20;;;3.20;99.90;;;;;;5034305;28;20237;-68
2023/12/08 00:42:36;;;;;;;12.70;10.43;;;3.30;99.90;;;;;;5033629;28;20200;-68
2023/12/08 00:45:03;;;;;;;14.13;11.70;;;3.30;99.90;;;;;;5034438;28;20179;-67
2023/12/08 00:47:29;;;;;;;12.83;11.47;;;3.30;99.90;;;;;;5033978;28;20249;-68
2023/12/08 00:49:54;;;;;;;14.87;11.20;;;3.40;99.90;;;;;;5034187;28;20532;-70
2023/12/08 00:52:20;;;;;;;11.97;10.77;;;3.40;99.90;;;;;;5034101;28;20180;-69
2023/12/08 00:54:46;;;;;;;15.33;11.33;;;3.40;99.90;;;;;;5033891;28;20171;-69
2023/12/08 00:57:11;;;;;;;12.90;11.43;;;3.40;99.90;;;;;;5033983;28;20239;-69
2023/12/08 00:59:37;;;;;;;15.57;11.53;;;3.40;99.90;;;;;;5033708;28;20225;-68
2023/12/08 01:02:02;;;;;;;11.90;10.43;;;3.40;99.90;;;;;;5033467;28;20194;-69
2023/12/08 01:04:29;;;;;;;11.47;10.27;;;3.40;99.90;;;;;;5033899;28;20233;-68
2023/12/08 01:06:54;;;;;;;11.80;10.47;;;3.50;99.90;;;;;;5033804;28;20346;-69
2023/12/08 01:09:20;;;;;;;12.40;11.17;;;3.50;99.90;;;;;;5033852;28;20294;-70
2023/12/08 01:11:45;;;;;;;13.57;10.73;;;3.50;99.90;;;;;;5033799;28;20284;-70
2023/12/08 01:14:11;;;;;;;14.90;10.90;;;3.50;99.90;;;;;;5033773;28;20183;-69
2023/12/08 01:16:43;;;;;;;11.67;10.43;;;3.50;99.90;;;;;;5033421;28;20195;-70
2023/12/08 01:19:12;;;;;;;12.17;10.83;;;3.60;99.90;;;;;;5033389;28;20210;-69
2023/12/08 01:21:38;;;;;;;12.40;10.80;;;3.60;99.90;;;;;;5033170;28;20176;-69
2023/12/08 01:24:05;;;;;;;12.67;10.30;;;3.60;99.90;;;;;;5033229;28;20583;-69
2023/12/08 01:26:31;;;;;;;13.63;10.50;;;3.60;99.90;;;;;;5033218;28;20191;-70
2023/12/08 01:28:57;;;;;;;11.93;10.60;;;3.60;99.90;;;;;;5033170;28;20558;-69
2023/12/08 01:31:22;;;;;;;10.67;9.63;;;3.60;99.90;;;;;;5033009;28;20230;-69
2023/12/08 01:33:48;;;;;;;13.03;10.60;;;3.60;99.90;;;;;;5033095;28;20187;-70
2023/12/08 01:36:14;;;;;;;13.80;10.77;;;3.60;99.90;;;;;;5032745;28;20187;-69
2023/12/08 01:38:44;;;;;;;13.37;11.13;;;3.60;99.90;;;;;;5033055;28;20183;-69
2023/12/08 01:41:13;;;;;;;14.87;11.47;;;3.60;99.90;;;;;;5032847;28;20640;-70
2023/12/08 01:43:39;;;;;;;12.70;10.60;;;3.60;99.90;;;;;;5032760;28;20649;-70
2023/12/08 01:46:05;;;;;;;13.07;10.70;;;3.60;99.90;;;;;;5033015;28;20214;-70
2023/12/08 01:48:31;;;;;;;16.57;11.63;;;3.50;99.90;;;;;;5032915;28;20221;-69
2023/12/08 01:50:57;;;;;;;12.67;10.70;;;3.40;99.90;;;;;;5032901;28;20183;-70
2023/12/08 01:53:23;;;;;;;15.20;10.77;;;3.30;99.90;;;;;;5031661;28;20186;-70
2023/12/08 01:55:49;;;;;;;12.83;10.90;;;3.20;99.90;;;;;;5032638;28;20543;-69
2023/12/08 01:58:16;;;;;;;14.60;11.53;;;3.20;99.90;;;;;;5032457;28;20218;-69
2023/12/08 02:00:45;;;;;;;15.33;12.13;;;3.00;99.90;;;;;;5032851;28;20647;-70
2023/12/08 02:03:12;;;;;;;16.97;11.80;;;3.00;99.90;;;;;;5032389;28;20203;-69
2023/12/08 02:05:41;;;;;;;15.80;12.30;;;2.90;99.90;;;;;;5032753;28;20657;-69
2023/12/08 02:08:07;;;;;;;15.00;11.70;;;2.90;99.90;;;;;;5032734;28;20200;-69
2023/12/08 02:10:33;;;;;;;14.43;11.60;;;2.80;99.90;;;;;;5032421;28;20183;-69
2023/12/08 02:12:59;;;;;;;15.37;12.30;;;2.80;99.90;;;;;;5032507;28;20183;-69
2023/12/08 02:15:25;;;;;;;15.97;12.53;;;2.80;99.90;;;;;;5031804;28;20267;-69
2023/12/08 02:17:51;;;;;;;13.27;11.73;;;2.70;99.90;;;;;;5032072;28;20290;-69
2023/12/08 02:20:18;;;;;;;16.77;12.93;;;2.70;99.90;;;;;;5032306;28;20183;-69
2023/12/08 02:22:43;;;;;;;16.30;12.73;;;2.70;99.90;;;;;;5032167;28;20196;-69
2023/12/08 02:25:09;;;;;;;15.53;12.37;;;2.70;99.90;;;;;;5032196;28;20656;-69
2023/12/08 02:27:35;;;;;;;18.10;12.73;;;2.70;99.90;;;;;;5031763;28;20200;-69
2023/12/08 02:30:01;;;;;;;16.73;12.93;;;2.70;99.90;;;;;;5032094;28;20251;-69
2023/12/08 02:32:58;;;;;;;19.27;13.10;;;2.60;99.90;;;;;;5032049;28;20187;-69
2023/12/08 02:35:24;;;;;;;17.20;11.67;;;2.60;99.90;;;;;;5032785;28;20207;-70
2023/12/08 02:37:53;;;;;;;19.07;14.23;;;2.60;99.90;;;;;;5032046;28;20552;-70
2023/12/08 02:40:18;;;;;;;20.83;13.57;;;2.60;99.90;;;;;;5031866;28;20178;-70
2023/12/08 02:42:44;;;;;;;18.63;14.10;;;2.60;99.90;;;;;;5031954;28;20203;-69
2023/12/08 02:45:10;;;;;;;20.50;13.67;;;2.60;99.90;;;;;;5032039;28;20259;-69
2023/12/08 02:47:35;;;;;;;17.03;13.53;;;2.60;99.90;;;;;;5031620;28;20203;-69
2023/12/08 02:50:01;;;;;;;18.27;13.53;;;2.60;99.90;;;;;;5031732;28;20226;-69
2023/12/08 02:52:27;;;;;;;17.23;12.97;;;2.60;99.90;;;;;;5031824;28;20496;-69
2023/12/08 02:54:52;;;;;;;18.37;13.20;;;2.60;99.90;;;;;;5031849;28;20712;-69
2023/12/08 02:57:18;;;;;;;16.60;12.67;;;2.60;99.90;;;;;;5031501;28;20664;-70
2023/12/08 02:59:43;;;;;;;19.20;12.57;;;2.60;99.90;;;;;;5031589;28;20176;-69
2023/12/08 03:02:09;;;;;;;17.00;13.00;;;2.60;99.90;;;;;;5031509;28;20551;-69
2023/12/08 03:04:34;;;;;;;17.00;13.57;;;2.60;99.90;;;;;;5032157;28;20202;-69
2023/12/08 03:07:00;;;;;;;14.47;12.37;;;2.60;99.90;;;;;;5031508;28;20671;-70
2023/12/08 03:09:26;;;;;;;17.80;12.93;;;2.60;99.90;;;;;;5030173;28;20175;-69
2023/12/08 03:11:52;;;;;;;17.43;13.77;;;2.60;99.90;;;;;;5031164;28;20180;-69
2023/12/08 03:14:17;;;;;;;19.90;12.53;;;2.60;99.90;;;;;;5031256;28;20191;-69
2023/12/08 03:16:46;;;;;;;17.97;13.47;;;2.60;99.90;;;;;;5031449;28;20195;-68
2023/12/08 03:19:11;;;;;;;17.33;12.17;;;2.70;99.90;;;;;;5031643;28;20172;-69
2023/12/08 03:21:37;;;;;;;17.80;13.30;;;2.60;99.90;;;;;;5031077;28;20257;-68
2023/12/08 03:24:03;;;;;;;14.87;13.20;;;2.70;99.90;;;;;;5031334;28;20200;-69
2023/12/08 03:26:28;;;;;;;16.03;12.50;;;2.70;99.90;;;;;;5031007;28;20290;-69
2023/12/08 03:28:54;;;;;;;16.53;13.23;;;2.60;99.90;;;;;;5031080;28;20191;-69
2023/12/08 03:31:30;;;;;;;17.27;13.67;;;2.60;99.90;;;;;;5031008;28;20172;-68
2023/12/08 03:33:56;;;;;;;16.17;13.13;;;2.60;99.90;;;;;;5031380;28;20237;-69
2023/12/08 03:36:21;;;;;;;19.87;13.17;;;2.60;99.90;;;;;;5030801;28;20203;-69
2023/12/08 03:38:47;;;;;;;17.20;12.83;;;2.60;99.90;;;;;;5031278;28;20178;-69
2023/12/08 03:41:13;;;;;;;20.23;13.57;;;2.60;99.90;;;;;;5030422;28;20190;-70
2023/12/08 03:43:38;;;;;;;18.23;13.70;;;2.60;99.90;;;;;;5031259;28;20209;-70
2023/12/08 03:46:07;;;;;;;18.10;14.27;;;2.50;99.90;;;;;;5031293;28;20182;-70
2023/12/08 03:48:34;;;;;;;18.93;13.50;;;2.50;99.90;;;;;;5031427;28;20163;-70
2023/12/08 03:51:00;;;;;;;17.60;13.70;;;2.50;99.90;;;;;;5030395;28;20215;-70
2023/12/08 03:53:25;;;;;;;20.63;13.63;;;2.50;99.90;;;;;;5031291;28;20234;-70
2023/12/08 03:55:51;;;;;;;25.40;13.73;;;2.40;99.90;;;;;;5031776;28;20180;-70
2023/12/08 03:58:17;;;;;;;24.73;14.77;;;2.40;99.90;;;;;;5031490;28;20192;-69
2023/12/08 04:00:42;;;;;;;21.13;13.87;;;2.40;99.90;;;;;;5031287;28;20176;-70
2023/12/08 04:03:08;;;;;;;19.70;14.50;;;2.50;99.90;;;;;;5030633;28;20207;-70
2023/12/08 04:05:33;;;;;;;21.67;13.97;;;2.40;99.90;;;;;;5031338;28;20651;-70
2023/12/08 04:07:59;;;;;;;17.47;13.20;;;2.40;99.90;;;;;;5031027;28;20274;-69
2023/12/08 04:10:24;;;;;;;18.40;14.13;;;2.40;99.90;;;;;;5031180;28;20187;-69
2023/12/08 04:12:50;;;;;;;18.87;14.63;;;2.40;99.90;;;;;;5031171;28;20203;-70
2023/12/08 04:15:16;;;;;;;21.53;14.17;;;2.40;99.90;;;;;;5031261;28;20470;-70
2023/12/08 04:17:41;;;;;;;20.43;14.70;;;2.40;99.90;;;;;;5031274;28;20754;-70
2023/12/08 04:20:07;;;;;;;23.90;14.77;;;2.40;99.90;;;;;;5031140;28;20230;-70
2023/12/08 04:22:33;;;;;;;19.97;15.33;;;2.50;99.90;;;;;;5030640;28;20202;-71
2023/12/08 04:24:58;;;;;;;22.03;14.73;;;2.50;99.90;;;;;;5030932;28;20543;-69
2023/12/08 04:27:24;;;;;;;22.07;15.60;;;2.50;99.90;;;;;;5030893;28;20594;-69
2023/12/08 04:29:49;;;;;;;21.07;15.00;;;2.50;99.90;;;;;;5030983;28;20215;-70
2023/12/08 04:32:15;;;;;;;23.00;16.17;;;2.50;99.90;;;;;;5030988;28;20203;-70
2023/12/08 04:34:40;;;;;;;20.73;15.03;;;2.50;99.90;;;;;;5030999;28;20194;-70
2023/12/08 04:37:06;;;;;;;22.90;16.03;;;2.50;99.90;;;;;;5031440;28;20721;-70
2023/12/08 04:39:32;;;;;;;23.67;17.37;;;2.50;99.90;;;;;;5034730;28;20267;-70
2023/12/08 04:41:57;;;;;;;22.33;16.30;;;2.50;99.90;;;;;;5034214;28;20179;-70
2023/12/08 04:44:23;;;;;;;28.20;17.47;;;2.40;99.90;;;;;;5034382;28;20214;-70
2023/12/08 04:46:48;;;;;;;20.50;15.60;;;2.40;99.90;;;;;;5034267;28;20234;-70
2023/12/08 04:49:14;;;;;;;26.50;17.33;;;2.40;99.90;;;;;;5034352;28;20191;-70
2023/12/08 04:51:43;;;;;;;23.57;16.83;;;2.30;99.90;;;;;;5033835;28;20183;-70
2023/12/08 04:54:09;;;;;;;26.40;17.67;;;2.30;99.90;;;;;;5034151;28;20206;-70
2023/12/08 04:56:34;;;;;;;26.40;17.33;;;2.30;99.90;;;;;;5034082;28;20684;-70
2023/12/08 04:59:00;;;;;;;24.60;16.13;;;2.30;99.90;;;;;;5033970;28;20176;-70
2023/12/08 05:01:25;;;;;;;24.47;16.33;;;2.30;99.90;;;;;;5033976;28;20225;-70
2023/12/08 05:03:52;;;;;;;35.13;17.63;;;2.30;99.90;;;;;;5033684;28;20678;-70
2023/12/08 05:06:17;;;;;;;24.57;18.63;;;2.30;99.90;;;;;;5033870;28;20210;-70
2023/12/08 05:08:43;;;;;;;29.17;20.40;;;2.30;99.90;;;;;;5033737;28;20183;-70
2023/12/08 05:11:09;;;;;;;25.13;16.80;;;2.30;99.90;;;;;;5033703;28;20670;-70
2023/12/08 05:13:34;;;;;;;27.40;17.93;;;2.30;99.90;;;;;;5034063;28;20179;-69
2023/12/08 05:16:00;;;;;;;29.07;18.60;;;2.20;99.90;;;;;;5033967;28;20194;-69
2023/12/08 05:18:26;;;;;;;29.03;18.30;;;2.30;99.90;;;;;;5034129;28;20175;-69
2023/12/08 05:20:52;;;;;;;25.73;18.40;;;2.30;99.90;;;;;;5033559;28;20180;-70
2023/12/08 05:23:18;;;;;;;24.00;17.37;;;2.30;99.90;;;;;;5033143;28;20699;-70
2023/12/08 05:25:44;;;;;;;23.67;18.17;;;2.30;99.90;;;;;;5033514;28;20179;-70
2023/12/08 05:28:09;;;;;;;28.40;19.03;;;2.30;99.90;;;;;;5033542;28;20219;-70
2023/12/08 05:30:35;;;;;;;26.00;18.40;;;2.30;99.90;;;;;;5033589;28;20692;-69
2023/12/08 05:33:01;;;;;;;28.73;18.73;;;2.30;99.90;;;;;;5033118;28;20301;-69
2023/12/08 05:35:27;;;;;;;32.60;18.57;;;2.30;99.90;;;;;;5033066;28;20176;-70
2023/12/08 05:37:52;;;;;;;22.83;17.53;;;2.30;99.90;;;;;;5032110;28;20203;-69
2023/12/08 05:40:18;;;;;;;25.50;17.83;;;2.30;99.90;;;;;;5031040;28;20230;-69
2023/12/08 05:42:44;;;;;;;30.23;19.53;;;2.30;99.90;;;;;;5032741;28;20705;-69
2023/12/08 05:45:10;;;;;;;27.57;18.17;;;2.30;99.90;;;;;;5032927;28;20176;-69
2023/12/08 05:47:35;;;;;;;26.37;17.90;;;2.40;99.90;;;;;;5033096;28;20294;-69
2023/12/08 05:50:02;;;;;;;25.57;17.57;;;2.30;99.90;;;;;;5032101;28;20747;-70
2023/12/08 05:52:28;;;;;;;25.57;17.97;;;2.40;99.90;;;;;;5032906;28;20179;-70
2023/12/08 05:54:53;;;;;;;24.10;17.57;;;2.50;99.90;;;;;;5032934;28;20172;-70
2023/12/08 05:57:19;;;;;;;28.20;19.50;;;2.50;99.90;;;;;;5033054;28;20214;-69
2023/12/08 05:59:44;;;;;;;26.63;18.47;;;2.50;99.90;;;;;;5032928;28;20172;-69
2023/12/08 06:02:10;;;;;;;29.97;19.17;;;2.50;99.90;;;;;;5032918;28;20513;-70
2023/12/08 06:04:35;;;;;;;23.77;18.77;;;2.60;99.90;;;;;;5032350;28;20298;-70
2023/12/08 06:07:01;;;;;;;27.17;17.53;;;2.60;99.90;;;;;;5032601;28;20195;-70
2023/12/08 06:09:27;;;;;;;27.60;18.87;;;2.70;99.90;;;;;;5032622;28;20203;-70
2023/12/08 06:11:52;;;;;;;28.00;18.93;;;2.70;99.90;;;;;;5032270;28;20171;-69
2023/12/08 06:14:18;;;;;;;30.07;19.03;;;2.70;99.90;;;;;;5032625;28;20250;-69
2023/12/08 06:16:43;;;;;;;32.77;20.17;;;2.70;99.90;;;;;;5032560;28;20658;-69
2023/12/08 06:19:09;;;;;;;28.50;19.80;;;2.70;99.90;;;;;;5032262;28;20686;-69
2023/12/08 06:21:35;;;;;;;28.63;19.13;;;2.70;99.90;;;;;;5032160;28;20175;-69
2023/12/08 06:24:01;;;;;;;30.43;20.37;;;2.70;99.90;;;;;;5031793;28;20552;-70
2023/12/08 06:26:26;;;;;;;30.20;20.13;;;2.70;99.90;;;;;;5032142;28;20227;-69
2023/12/08 06:28:52;;;;;;;29.07;19.87;;;2.70;99.90;;;;;;5031989;28;20241;-69
2023/12/08 06:31:18;;;;;;;29.67;20.00;;;2.70;99.90;;;;;;5032138;28;20179;-69
2023/12/08 06:33:44;;;;;;;28.30;19.83;;;2.70;99.90;;;;;;5031667;28;20639;-70
2023/12/08 06:36:10;;;;;;;33.87;20.23;;;2.70;99.90;;;;;;5032121;28;20188;-69
2023/12/08 06:38:37;;;;;;;33.53;19.13;;;2.80;99.90;;;;;;5032144;28;20230;-69
2023/12/08 06:41:04;;;;;;;27.37;19.33;;;2.70;99.90;;;;;;5024031;28;20238;-70
2023/12/08 06:43:30;;;;;;;32.67;20.57;;;2.80;99.90;;;;;;5025441;28;20222;-70
2023/12/08 06:45:56;;;;;;;31.93;21.30;;;2.80;99.90;;;;;;5031697;28;20191;-69
2023/12/08 06:48:23;;;;;;;27.00;19.53;;;2.80;99.90;;;;;;5031835;28;20250;-69
2023/12/08 06:50:50;;;;;;;29.87;20.13;;;2.80;99.90;;;;;;5031700;28;20583;-69
2023/12/08 06:53:16;;;;;;;36.53;21.10;;;2.80;99.90;;;;;;5031524;28;20237;-69
2023/12/08 06:55:42;;;;;;;31.07;20.57;;;2.80;99.90;;;;;;5031683;28;20171;-69
2023/12/08 06:58:08;;;;;;;30.97;20.90;;;2.90;99.90;;;;;;5031377;28;20199;-69
2023/12/08 07:00:33;;;;;;;33.40;20.97;;;2.90;99.90;;;;;;5031236;28;20175;-69
2023/12/08 07:02:59;;;;;;;33.77;19.83;;;2.90;99.90;;;;;;5031141;28;20559;-70
2023/12/08 07:05:25;;;;;;;28.70;20.67;;;2.90;99.90;;;;;;5031450;28;20171;-71
2023/12/08 07:07:50;;;;;;;30.50;20.23;;;2.90;99.90;;;;;;5031114;28;20187;-69
2023/12/08 07:10:16;;;;;;;34.63;21.37;;;2.90;99.90;;;;;;5031092;28;20647;-69
2023/12/08 07:12:42;;;;;;;31.00;20.00;;;2.90;99.90;;;;;;5031195;28;20544;-69
2023/12/08 07:15:09;;;;;;;32.10;20.90;;;2.90;99.90;;;;;;5031262;28;20178;-69
2023/12/08 07:17:35;;;;;;;31.97;20.50;;;2.90;99.90;;;;;;5029080;28;20199;-70
2023/12/08 07:20:00;;;;;;;31.10;21.33;;;2.90;99.90;;;;;;5031096;28;20179;-70
2023/12/08 07:22:26;;;;;;;29.10;19.83;;;2.90;99.90;;;;;;5031054;28;20175;-70
2023/12/08 07:24:51;;;;;;;30.40;21.43;;;2.90;99.90;;;;;;5029048;28;20226;-70
2023/12/08 07:27:17;;;;;;;34.23;21.40;;;3.00;99.90;;;;;;5030853;28;20191;-70
2023/12/08 07:29:43;;;;;;;32.60;20.70;;;2.90;99.90;;;;;;5030662;28;20198;-70
2023/12/08 07:32:08;;;;;;;30.17;21.20;;;3.00;99.90;;;;;;5030576;28;20175;-70
2023/12/08 07:34:34;;;;;;;28.87;20.27;;;3.00;99.90;;;;;;5030934;28;20183;-70
2023/12/08 07:36:59;;;;;;;32.77;23.13;;;3.00;99.90;;;;;;5030379;28;20265;-70
2023/12/08 07:39:25;;;;;;;34.47;22.33;;;3.00;99.90;;;;;;5030828;28;20189;-70
2023/12/08 07:41:51;;;;;;;36.40;21.57;;;3.00;99.90;;;;;;5030485;28;20182;-69
2023/12/08 07:44:16;;;;;;;31.30;21.10;;;3.10;99.90;;;;;;5030919;28;20674;-70
2023/12/08 07:46:42;;;;;;;32.07;21.10;;;3.10;99.90;;;;;;5031061;28;20191;-70
2023/12/08 07:49:08;;;;;;;33.27;23.37;;;3.10;99.90;;;;;;5031072;28;20178;-70
2023/12/08 07:51:34;;;;;;;33.20;21.70;;;3.10;99.90;;;;;;5030609;28;20164;-70
2023/12/08 07:54:00;;;;;;;33.03;23.00;;;3.20;99.90;;;;;;5030366;28;20178;-70
2023/12/08 07:56:26;;;;;;;33.07;22.07;;;3.10;99.90;;;;;;5030607;28;20191;-70
2023/12/08 07:58:51;;;;;;;33.67;22.47;;;3.10;99.90;;;;;;5030371;28;20811;-71
2023/12/08 08:01:17;;;;;;;35.00;22.63;;;3.20;99.90;;;;;;5030747;28;20171;-70
2023/12/08 08:03:43;;;;;;;39.77;23.03;;;3.10;99.90;;;;;;5030516;28;20202;-69
2023/12/08 08:06:09;;;;;;;33.53;22.37;;;3.20;99.90;;;;;;5030368;28;20172;-70
2023/12/08 08:08:35;;;;;;;30.40;22.00;;;3.20;99.90;;;;;;5030575;28;20175;-69
2023/12/08 08:11:01;;;;;;;38.73;23.20;;;3.20;99.90;;;;;;5030384;28;20172;-70
2023/12/08 08:13:27;;;;;;;32.10;22.27;;;3.30;99.90;;;;;;5031604;28;20697;-70
2023/12/08 08:15:52;;;;;;;32.40;21.93;;;3.30;99.90;;;;;;5031468;28;20172;-69
2023/12/08 08:18:18;;;;;;;34.00;22.13;;;3.30;99.90;;;;;;5034555;28;20194;-70
2023/12/08 08:20:43;;;;;;;35.20;22.97;;;3.30;99.90;;;;;;5034053;28;20666;-70
2023/12/08 08:23:09;;;;;;;35.47;21.97;;;3.40;99.90;;;;;;5033396;28;20606;-70
2023/12/08 08:25:35;;;;;;;35.97;22.07;;;3.30;99.90;;;;;;5034014;28;20219;-70
2023/12/08 08:28:00;;;;;;;32.57;22.47;;;3.30;99.90;;;;;;5033713;28;20207;-70
2023/12/08 08:30:26;;;;;;;34.63;21.80;;;3.40;99.90;;;;;;5034150;28;20172;-70
2023/12/08 08:32:52;;;;;;;34.33;21.87;;;3.30;99.90;;;;;;5034183;28;20262;-70
2023/12/08 08:35:18;;;;;;;35.47;21.20;;;3.40;99.90;;;;;;5033917;28;20258;-69
2023/12/08 08:37:44;;;;;;;31.30;20.53;;;3.40;99.90;;;;;;5034151;28;20207;-70
2023/12/08 08:40:10;;;;;;;31.77;21.93;;;3.40;99.90;;;;;;5033930;28;20179;-70
2023/12/08 08:42:36;;;;;;;34.53;20.87;;;3.50;99.90;;;;;;5033813;28;20237;-70
2023/12/08 08:45:04;;;;;;;31.73;22.07;;;3.50;99.90;;;;;;5034018;28;20643;-70
2023/12/08 08:47:30;;;;;;;31.17;20.83;;;3.50;99.90;;;;;;5033393;28;20199;-70
2023/12/08 08:49:55;;;;;;;35.10;23.57;;;3.60;99.90;;;;;;5033564;28;20175;-70
2023/12/08 08:52:21;;;;;;;29.93;22.13;;;3.60;99.90;;;;;;5033850;28;20183;-70
2023/12/08 08:54:47;;;;;;;37.00;22.00;;;3.60;99.90;;;;;;5033861;28;20182;-70
2023/12/08 08:57:12;;;;;;;32.47;22.07;;;3.60;99.90;;;;;;5033585;28;20195;-70
2023/12/08 08:59:38;;;;;;;33.60;21.90;;;3.60;99.90;;;;;;5033586;28;20179;-70
2023/12/08 09:02:04;;;;;;;30.17;21.97;;;3.70;99.90;;;;;;5033394;28;20663;-70
2023/12/08 09:04:29;;;;;;;30.70;21.57;;;3.70;99.90;;;;;;5033635;28;20195;-70
2023/12/08 09:06:57;;;;;;;32.67;22.47;;;3.70;99.90;;;;;;5033654;28;20194;-70
2023/12/08 09:09:23;;;;;;;32.13;23.43;;;3.70;99.90;;;;;;5033631;28;20261;-70
2023/12/08 09:11:49;;;;;;;32.07;22.00;;;3.80;99.90;;;;;;5033311;28;20653;-70
2023/12/08 09:14:15;;;;;;;37.03;22.07;;;3.80;99.90;;;;;;5033290;28;20647;-70
2023/12/08 09:16:40;;;;;;;33.27;23.67;;;3.90;99.90;;;;;;5032259;28;20219;-70
2023/12/08 09:19:06;;;;;;;32.13;22.80;;;3.90;99.90;;;;;;5033044;28;20189;-70
2023/12/08 09:21:32;;;;;;;33.97;21.93;;;4.00;99.90;;;;;;5033317;28;20266;-69
2023/12/08 09:23:58;;;;;;;32.43;21.70;;;4.00;99.90;;;;;;5033551;28;20290;-70
2023/12/08 09:26:24;;;;;;;35.73;21.80;;;4.00;99.90;;;;;;5033724;28;20219;-70
2023/12/08 09:28:49;;;;;;;33.03;22.37;;;4.10;99.90;;;;;;5033252;28;20199;-69
2023/12/08 09:31:15;;;;;;;32.07;21.07;;;4.10;99.90;;;;;;5032773;28;20246;-70
2023/12/08 09:33:44;;;;;;;33.00;21.37;;;4.20;99.90;;;;;;5032614;28;20180;-70
2023/12/08 09:36:10;;;;;;;35.33;21.27;;;4.10;99.90;;;;;;5028951;28;20184;-70
2023/12/08 09:38:35;;;;;;;29.30;20.43;;;4.10;99.90;;;;;;5013878;28;20189;-70
2023/12/08 09:41:04;;;;;;;30.97;20.90;;;4.10;99.90;;;;;;5031760;28;20215;-70
2023/12/08 09:43:59;;;;;;;29.50;22.10;;;4.10;99.90;;;;;;5032356;28;20635;-69
2023/12/08 09:46:26;;;;;;;35.20;22.70;;;4.10;99.90;;;;;;5032393;28;20306;-70
2023/12/08 09:48:58;;;;;;;33.10;22.40;;;4.00;99.90;;;;;;5025480;28;20723;-69
2023/12/08 09:51:25;;;;;;;33.07;22.67;;;4.10;99.90;;;;;;5012927;28;20674;-70
2023/12/08 09:53:52;;;;;;;32.93;22.23;;;4.00;99.90;;;;;;5012712;28;20246;-69
2023/12/08 09:56:18;;;;;;;30.80;21.60;;;4.10;99.90;;;;;;5024886;28;20298;-69
2023/12/08 09:58:45;;;;;;;33.20;22.37;;;4.10;99.90;;;;;;5031256;28;20226;-69
2023/12/08 10:01:13;;;;;;;36.37;22.33;;;4.10;99.90;;;;;;5030878;28;20552;-69
2023/12/08 10:03:41;;;;;;;36.07;22.40;;;4.10;99.90;;;;;;5032125;28;20211;-69
2023/12/08 10:06:07;;;;;;;35.00;22.53;;;4.20;99.90;;;;;;5032398;28;20172;-69
2023/12/08 10:08:34;;;;;;;29.07;20.83;;;4.20;99.90;;;;;;5032756;28;20199;-69
2023/12/08 10:10:59;;;;;;;33.23;21.87;;;4.20;99.90;;;;;;5031355;28;20180;-69
2023/12/08 10:13:26;;;;;;;32.90;22.17;;;4.20;99.90;;;;;;5032061;28;20191;-69
2023/12/08 10:15:51;;;;;;;33.90;21.93;;;4.20;99.90;;;;;;5032160;28;20175;-69
2023/12/08 10:18:24;;;;;;;34.33;22.50;;;4.30;99.90;;;;;;5031962;28;20195;-69
2023/12/08 10:20:50;;;;;;;35.00;21.20;;;4.30;99.90;;;;;;5031694;28;20171;-69
2023/12/08 10:23:20;;;;;;;31.50;21.13;;;4.50;99.90;;;;;;5031050;28;20202;-69
2023/12/08 10:25:47;;;;;;;32.03;21.17;;;4.50;99.90;;;;;;5031860;28;20171;-69
2023/12/08 10:28:13;;;;;;;35.07;21.87;;;4.60;99.90;;;;;;5031816;28;20213;-69
2023/12/08 10:30:50;;;;;;;35.57;22.47;;;4.60;99.90;;;;;;5032159;28;20175;-69
2023/12/08 10:33:23;;;;;;;33.63;21.60;;;4.60;99.90;;;;;;5031759;28;20705;-71
2023/12/08 10:35:51;;;;;;;35.23;21.17;;;4.60;99.90;;;;;;5030618;28;20222;-69
2023/12/08 10:38:17;;;;;;;34.03;21.23;;;4.70;99.90;;;;;;5029621;28;20204;-71
2023/12/08 10:40:50;;;;;;;34.50;22.00;;;4.70;99.90;;;;;;5031702;28;20226;-72
2023/12/08 10:43:22;;;;;;;33.13;22.87;;;4.70;99.90;;;;;;5031337;28;20195;-71
2023/12/08 10:45:51;;;;;;;28.27;20.50;;;4.70;99.90;;;;;;5032146;28;20194;-72
2023/12/08 10:48:21;;;;;;;30.53;21.23;;;4.60;99.90;;;;;;5033098;28;20194;-72
2023/12/08 10:50:49;;;;;;;30.57;20.03;;;4.60;99.90;;;;;;5031008;28;20191;-71
2023/12/08 10:53:19;;;;;;;33.83;21.83;;;4.60;99.90;;;;;;5030969;28;20175;-71
2023/12/08 10:56:04;;;;;;;34.63;21.67;;;4.60;99.90;;;;;;5031658;28;20199;-71
2023/12/08 10:58:33;;;;;;;33.43;21.00;;;4.60;99.90;;;;;;5031426;28;20167;-71
2023/12/08 11:01:00;;;;;;;37.90;21.57;;;4.60;99.90;;;;;;5031057;28;20229;-71
2023/12/08 11:03:34;;;;;;;32.50;22.17;;;4.70;99.90;;;;;;5030310;28;20210;-71
2023/12/08 11:06:06;;;;;;;33.80;22.07;;;4.70;99.90;;;;;;5031001;28;20179;-71
2023/12/08 11:08:33;;;;;;;33.40;21.00;;;4.80;99.90;;;;;;5031508;28;20175;-71
2023/12/08 11:10:59;;;;;;;31.03;20.17;;;4.80;99.90;;;;;;5031241;28;20171;-71
2023/12/08 11:13:29;;;;;;;33.67;21.57;;;4.80;99.90;;;;;;5031045;28;20237;-71
2023/12/08 11:16:11;;;;;;;33.70;20.97;;;4.90;99.90;;;;;;5031059;28;20255;-72
2023/12/08 11:18:38;;;;;;;27.90;19.50;;;4.90;99.90;;;;;;5030988;28;20176;-71
2023/12/08 11:21:08;;;;;;;29.03;20.33;;;4.90;99.90;;;;;;5030947;28;20178;-72
2023/12/08 11:23:39;;;;;;;32.50;20.80;;;4.90;99.90;;;;;;5030876;28;20698;-71
2023/12/08 11:26:20;;;;;;;28.23;20.90;;;5.00;99.90;;;;;;5030798;28;20167;-72
2023/12/08 11:29:18;;;;;;;34.73;21.57;;;5.00;99.90;;;;;;5030040;28;20191;-71
2023/12/08 11:31:59;;;;;;;39.63;22.83;;;5.10;99.90;;;;;;4988269;28;20590;-72
2023/12/08 11:34:55;;;;;;;32.60;21.70;;;5.10;99.90;;;;;;5011044;28;20171;-71
2023/12/08 11:37:22;;;;;;;31.53;19.53;;;5.10;99.90;;;;;;5018034;28;20202;-71
2023/12/08 11:39:47;;;;;;;31.53;21.30;;;5.20;99.90;;;;;;5030886;28;20179;-71
2023/12/08 11:42:16;;;;;;;35.90;20.77;;;5.20;99.90;;;;;;5030510;28;20176;-71
2023/12/08 11:44:46;;;;;;;27.47;20.60;;;5.20;99.90;;;;;;5030698;28;20253;-71
2023/12/08 11:47:14;;;;;;;30.37;20.13;;;5.30;99.90;;;;;;5031112;28;20286;-72
2023/12/08 11:49:43;;;;;;;34.20;21.37;;;5.40;99.90;;;;;;5034887;28;20197;-72
2023/12/08 11:52:20;;;;;;;26.03;18.73;;;5.40;99.90;;;;;;5034611;28;20286;-71
2023/12/08 11:55:15;;;;;;;33.50;21.57;;;5.40;99.90;;;;;;5035158;28;20647;-71
2023/12/08 11:57:49;;;;;;;28.67;18.90;;;5.40;99.90;;;;;;5023436;28;20538;-71
2023/12/08 12:00:19;;;;;;;29.43;20.00;;;5.50;99.90;;;;;;5022421;28;20206;-70
2023/12/08 12:02:47;;;;;;;32.70;20.50;;;5.50;99.90;;;;;;5035593;28;20182;-71
2023/12/08 12:05:12;;;;;;;27.13;19.13;;;5.60;99.90;;;;;;5035508;28;20202;-70
2023/12/08 12:07:40;;;;;;;32.23;19.47;;;5.60;99.90;;;;;;5036371;28;20183;-70
2023/12/08 12:10:12;;;;;;;30.10;19.87;;;5.70;99.90;;;;;;5037318;28;20171;-71
2023/12/08 12:12:44;;;;;;;27.73;19.23;;;5.70;99.90;;;;;;5036022;28;20167;-72
2023/12/08 12:15:10;;;;;;;28.83;19.07;;;5.70;99.90;;;;;;5035738;28;20175;-71
2023/12/08 12:17:38;;;;;;;32.37;20.97;;;5.80;99.90;;;;;;5035772;28;20191;-71
2023/12/08 12:20:04;;;;;;;27.07;18.37;;;5.80;99.90;;;;;;5034392;28;20168;-71
2023/12/08 12:22:30;;;;;;;30.73;18.93;;;5.80;99.90;;;;;;5034166;28;20667;-71
2023/12/08 12:24:55;;;;;;;34.33;20.13;;;5.70;99.90;;;;;;5034268;28;20242;-71
2023/12/08 12:27:21;;;;;;;30.13;20.43;;;5.80;99.90;;;;;;5033797;28;20191;-71
2023/12/08 12:29:47;;;;;;;32.57;18.60;;;5.80;99.90;;;;;;5034742;28;20226;-71
2023/12/08 12:32:12;;;;;;;33.87;19.90;;;5.80;99.90;;;;;;5033119;28;20183;-71
2023/12/08 12:34:39;;;;;;;29.40;19.83;;;5.80;99.90;;;;;;5034467;28;20184;-72